TimeMST,TemperatureF,Dew PointF,Humidity,Sea Level PressureIn,VisibilityMPH,Wind Direction,Wind SpeedMPH,Gust SpeedMPH,PrecipitationIn,Events,Conditions,WindDirDegrees,DateUTC
12:58 AM,43.0,30.6,62,30.12,10.0,North,5.8,-,N/A,,Clear,350,2013-02-14 07:58:00
1:58 AM,41.4,31.8,69,30.11,10.0,North,5.8,-,N/A,,Clear,360,2013-02-14 08:58:00
2:58 AM,42.6,30.0,61,30.11,10.0,NW,6.9,-,N/A,,Clear,320,2013-02-14 09:58:00
3:58 AM,40.5,30.2,67,30.11,10.0,East,4.6,-,N/A,,Clear,100,2013-02-14 10:58:00
4:58 AM,37.9,31.1,76,30.11,10.0,North,6.9,-,N/A,,Clear,10,2013-02-14 11:58:00
5:58 AM,37.9,30.2,74,30.11,10.0,NNE,5.8,-,N/A,,Clear,20,2013-02-14 12:58:00
6:58 AM,38.5,31.1,75,30.15,10.0,North,4.6,-,N/A,,Clear,350,2013-02-14 13:58:00
7:58 AM,39.7,32.5,75,30.14,10.0,North,5.8,-,N/A,,Clear,350,2013-02-14 14:58:00
8:58 AM,47.5,34.2,60,30.15,10.0,Variable,2.3,-,N/A,,Clear,0,2013-02-14 15:58:00
9:58 AM,50.4,30.2,46,30.16,10.0,East,2.3,-,N/A,,Clear,90,2013-02-14 16:58:00
10:58 AM,54.3,29.3,38,30.15,10.0,SE,2.3,-,N/A,,Clear,140,2013-02-14 17:58:00
11:58 AM,57.7,28.6,33,30.13,10.0,Calm,Calm,-,N/A,,Clear,0,2013-02-14 18:58:00
12:58 PM,62.8,27.9,27,30.12,10.0,South,8.1,-,N/A,,Clear,190,2013-02-14 19:58:00
1:58 PM,64.2,27.1,25,30.09,10.0,SSW,6.9,-,N/A,,Clear,210,2013-02-14 20:58:00
2:58 PM,66.4,27.9,24,30.06,10.0,Variable,1.2,-,N/A,,Clear,0,2013-02-14 21:58:00
3:58 PM,67.6,28.9,24,30.04,10.0,Variable,1.2,-,N/A,,Clear,0,2013-02-14 22:58:00
4:58 PM,68.4,29.5,23,30.03,10.0,West,2.3,-,N/A,,Clear,270,2013-02-14 23:58:00
5:58 PM,66.7,29.8,25,30.03,10.0,SW,8.1,-,N/A,,Clear,230,2013-02-15 00:58:00
6:58 PM,60.6,33.1,36,30.04,10.0,SW,4.6,-,N/A,,Clear,230,2013-02-15 01:58:00
7:58 PM,58.8,34.5,40,30.06,10.0,East,3.5,-,N/A,,Clear,90,2013-02-15 02:58:00
8:58 PM,53.6,37.2,54,30.08,10.0,NE,3.5,-,N/A,,Clear,40,2013-02-15 03:58:00
9:58 PM,51.3,37.2,59,30.11,10.0,North,8.1,-,N/A,,Clear,350,2013-02-15 04:58:00
10:58 PM,52.7,34.9,51,30.13,10.0,NNW,8.1,-,N/A,,Clear,330,2013-02-15 05:58:00
11:58 PM,48.0,36.3,64,30.14,10.0,NNW,4.6,-,N/A,,Clear,340,2013-02-15 06:58:00